Altoona Blair County Airport
KAOO : now visible

Airfield :











YOU CAN JOIN US ON...

 
LOGIN :

Register | Disclaimer

   EN    FR    IT 

 









Legend :    VFR   Marginal VFR   IFR   Intensive IFR   Very Intensive IFR
Visi :
Ceiling :
>= 8 km
>= 3000ft
5 to 8 km
1000 to 3000 ft
1500m to 5 km
500 to 1000 ft
800 to 1500m
200 to 500 ft
< 800m
< 200 ft
Symbols :   Thunderstorms  Fog  Heavy snow  Heavy precipitations  Wind > 20 kt






- Airport Elevation : 1503 ft
- IATA code : AOO


KAOO - Altoona Blair County

CURRENT METAR :
  • 180613Z AUTO 24008KT 10SM SCT027 M01/M03 A2967 RMK AO2 T10061028

EXPIRED METARs :
  • 180553Z AUTO 24007KT 7SM BKN025 BKN032 M01/M03 A2967 RMK AO2 SNE19 SLP060 P0000 60000 T10061028 10017 21011 56006
  • 180534Z AUTO 22009KT 8SM FEW017 BKN027 OVC036 M01/M02 A2967 RMK AO2 SNE19 P0000 T10061022
  • 180453Z AUTO 21007KT 5SM -SN BR FEW021 BKN042 OVC050 M01/M02 A2967 RMK AO2 SNB06 SLP060 P0000 T10061022 400281011
  • 180432Z AUTO 21007KT 4SM -SN BR BKN022 BKN028 OVC033 00/M02 A2968 RMK AO2 SNB06 P0000 T00001017
  • 180413Z AUTO 22011KT 1 3/4SM -SN BR BKN032 OVC039 00/M02 A2968 RMK AO2 SNB06 P0000 T00001022
  • 180353Z AUTO 22009KT 9SM SCT028 BKN038 OVC046 00/M03 A2968 RMK AO2 SLP064 T00001033
  • 180335Z AUTO 21008KT 10SM FEW023 BKN029 OVC050 01/M03 A2968 RMK AO2 T00061033

TAF KAOO
Valid from the 18 at 06:00 until the 19 at 06:00 UTC


180541Z 1806/1906 23007KT 5SM -SHSN SCT025 BKN035
FM181300 27012G22KT P6SM BKN035
FM190000 26008G16KT P6SM BKN035
KZOB FIR / North America



MET'MAP, your aeronautical weather chart ! - Copyright ORBIFLY December 2007 - Disclaimer

ORBIFLY MET'MAP TEAM :

Programming & Development : Alexandra Zaïnal
Concept & original design : Baudouin d'Aumeries
Assistance for programming : Marc-Olivier Méhu
Technical & hardware support : Manuel Goepfert

Contact : metmap@orbifly.com




SOURCES & CREDITS :

   NOAA       Earth
Advisory